Time;durP1;ratioP1;P1;durP2;ratioP2;P2;SDS_P1;SDS_P2;PMS_P1;PMS_P2;Temp;Humidity;BMP_temperature;BMP_pressure;BME280_temperature;BME280_humidity;BME280_pressure;Samples;Min_cycle;Max_cycle;Signal;HPM_P1;HPM_P2
2023/07/13 00:01:49;;;;;;;1.77;1.40;;;20.50;99.90;;;;;;5030851;28;20452;-65
2023/07/13 00:04:35;;;;;;;3.10;1.30;;;20.50;99.90;;;;;;5031293;28;20467;-66
2023/07/13 00:07:04;;;;;;;2.20;1.63;;;20.50;99.90;;;;;;5030549;28;20485;-65
2023/07/13 00:09:31;;;;;;;2.30;1.37;;;20.40;99.90;;;;;;5044928;28;20531;-65
2023/07/13 00:11:58;;;;;;;3.87;1.40;;;20.40;99.90;;;;;;5030517;28;20816;-66
2023/07/13 00:14:29;;;;;;;1.83;1.60;;;20.30;99.90;;;;;;5035068;28;20491;-66
2023/07/13 00:16:56;;;;;;;3.23;1.70;;;20.20;99.90;;;;;;5030737;28;21028;-65
2023/07/13 00:19:24;;;;;;;4.40;1.60;;;20.20;99.90;;;;;;5030444;28;20461;-65
2023/07/13 00:21:55;;;;;;;2.40;1.57;;;20.10;99.90;;;;;;5030160;28;20463;-65
2023/07/13 00:24:24;;;;;;;1.50;1.40;;;20.10;99.90;;;;;;5030213;28;20968;-65
2023/07/13 00:26:51;;;;;;;2.90;1.40;;;20.10;99.90;;;;;;5032560;28;20515;-65
2023/07/13 00:29:18;;;;;;;3.73;1.67;;;20.00;99.90;;;;;;5031063;28;20449;-65
2023/07/13 00:31:46;;;;;;;2.07;1.77;;;19.90;99.90;;;;;;5029828;28;20488;-65
2023/07/13 00:34:13;;;;;;;2.50;1.53;;;19.90;99.90;;;;;;5029628;28;20456;-65
2023/07/13 00:36:40;;;;;;;2.00;1.90;;;19.90;99.90;;;;;;5030134;28;20455;-64
2023/07/13 00:39:07;;;;;;;2.60;1.53;;;19.80;99.90;;;;;;5030595;28;20452;-64
2023/07/13 00:41:36;;;;;;;1.70;1.50;;;19.80;99.90;;;;;;5029286;28;20487;-65
2023/07/13 00:44:04;;;;;;;2.70;1.73;;;19.80;99.90;;;;;;5029599;28;20463;-64
2023/07/13 00:46:33;;;;;;;3.10;1.83;;;19.70;99.90;;;;;;5031524;28;20538;-66
2023/07/13 00:49:03;;;;;;;2.30;2.00;;;19.70;99.90;;;;;;5030011;28;20441;-65
2023/07/13 00:51:35;;;;;;;2.47;2.00;;;19.70;99.90;;;;;;5028846;28;20460;-65
2023/07/13 00:54:06;;;;;;;2.37;1.80;;;19.70;99.90;;;;;;5030544;28;20464;-65
2023/07/13 00:56:36;;;;;;;3.10;1.90;;;19.60;99.90;;;;;;5030112;28;20527;-65
2023/07/13 00:59:05;;;;;;;2.17;1.97;;;19.60;99.90;;;;;;5045313;28;20977;-65
2023/07/13 01:01:32;;;;;;;2.43;1.77;;;19.50;99.90;;;;;;5029372;28;20845;-65
2023/07/13 01:03:59;;;;;;;2.80;1.97;;;19.50;99.90;;;;;;5030277;28;20466;-65
2023/07/13 01:06:26;;;;;;;3.10;1.80;;;19.50;99.90;;;;;;5042687;28;20474;-65
2023/07/13 01:08:54;;;;;;;2.73;1.90;;;19.50;99.90;;;;;;5029739;28;20507;-65
2023/07/13 01:11:22;;;;;;;2.50;1.67;;;19.50;99.90;;;;;;5028775;28;20487;-65
2023/07/13 01:13:51;;;;;;;2.70;2.00;;;19.40;99.90;;;;;;5029829;28;20856;-66
2023/07/13 01:16:25;;;;;;;2.97;2.17;;;19.40;99.90;;;;;;5029446;28;20487;-65
2023/07/13 01:18:52;;;;;;;1.93;1.60;;;19.30;99.90;;;;;;5034512;28;20471;-65
2023/07/13 01:21:20;;;;;;;2.70;1.67;;;19.30;99.90;;;;;;5028844;28;20593;-65
2023/07/13 01:23:48;;;;;;;1.63;1.50;;;19.20;99.90;;;;;;5029158;28;20808;-65
2023/07/13 01:26:15;;;;;;;2.70;1.70;;;19.20;99.90;;;;;;5029768;28;21142;-66
2023/07/13 01:28:42;;;;;;;3.17;1.83;;;19.10;99.90;;;;;;5036082;28;20452;-65
2023/07/13 01:31:09;;;;;;;3.30;1.90;;;19.10;99.90;;;;;;5028869;28;20535;-65
2023/07/13 01:33:38;;;;;;;2.70;2.00;;;19.10;99.90;;;;;;5028425;28;21049;-65
2023/07/13 01:36:05;;;;;;;2.27;2.07;;;19.10;99.90;;;;;;5038873;28;20498;-65
2023/07/13 01:38:34;;;;;;;2.90;1.30;;;19.00;99.90;;;;;;5030209;28;20452;-66
2023/07/13 01:41:01;;;;;;;3.90;1.70;;;19.00;99.90;;;;;;5029425;28;20485;-66
2023/07/13 01:43:28;;;;;;;3.23;1.73;;;18.90;99.90;;;;;;5030848;28;21358;-66
2023/07/13 01:45:55;;;;;;;3.90;1.33;;;18.90;99.90;;;;;;5029909;28;20480;-65
2023/07/13 01:48:22;;;;;;;3.63;1.67;;;18.90;99.90;;;;;;5028388;28;20449;-65
2023/07/13 01:50:49;;;;;;;2.73;1.70;;;18.90;99.90;;;;;;5028515;28;20824;-65
2023/07/13 01:53:16;;;;;;;2.37;1.43;;;18.90;99.90;;;;;;5028267;28;20456;-65
2023/07/13 01:55:45;;;;;;;1.50;1.40;;;18.90;99.90;;;;;;5029177;28;21078;-65
2023/07/13 01:58:12;;;;;;;2.53;1.87;;;18.90;99.90;;;;;;5032016;28;20543;-65
2023/07/13 02:00:39;;;;;;;3.73;1.63;;;18.90;99.90;;;;;;5029254;28;20484;-65
2023/07/13 02:03:06;;;;;;;1.73;1.30;;;18.90;99.90;;;;;;5028326;28;20454;-65
2023/07/13 02:05:33;;;;;;;2.40;1.60;;;18.80;99.90;;;;;;5028024;28;20464;-65
2023/07/13 02:08:00;;;;;;;2.47;1.40;;;18.80;99.90;;;;;;5029553;28;20490;-65
2023/07/13 02:10:28;;;;;;;3.30;1.50;;;18.70;99.90;;;;;;5029029;28;20482;-66
2023/07/13 02:12:56;;;;;;;2.40;1.40;;;18.70;99.90;;;;;;5029197;28;20451;-66
2023/07/13 02:15:23;;;;;;;2.60;1.57;;;18.70;99.90;;;;;;5028917;28;20515;-65
2023/07/13 02:17:50;;;;;;;3.90;1.70;;;18.60;99.90;;;;;;5037638;28;20555;-65
2023/07/13 02:20:17;;;;;;;2.47;1.47;;;18.60;99.90;;;;;;5045581;28;20950;-65
2023/07/13 02:22:45;;;;;;;2.87;1.53;;;18.50;99.90;;;;;;5028335;28;21231;-64
2023/07/13 02:25:12;;;;;;;2.40;1.40;;;18.50;99.90;;;;;;5028513;28;20480;-64
2023/07/13 02:27:39;;;;;;;3.93;2.00;;;18.50;99.90;;;;;;5028909;28;20464;-64
2023/07/13 02:30:08;;;;;;;2.87;1.63;;;18.40;99.90;;;;;;5031417;28;20452;-65
2023/07/13 02:32:35;;;;;;;2.20;1.90;;;18.40;99.90;;;;;;5032827;28;20543;-64
2023/07/13 02:35:03;;;;;;;3.03;1.87;;;18.40;99.90;;;;;;5032954;28;20507;-64
2023/07/13 02:37:30;;;;;;;4.87;2.17;;;18.30;99.90;;;;;;5045069;28;20985;-65
2023/07/13 02:39:58;;;;;;;3.83;2.27;;;18.30;99.90;;;;;;5049912;28;20459;-65
2023/07/13 02:42:25;;;;;;;3.57;2.43;;;18.30;99.90;;;;;;5042204;28;20583;-65
2023/07/13 02:44:52;;;;;;;5.00;2.50;;;18.20;99.90;;;;;;5032180;28;20507;-65
2023/07/13 02:47:21;;;;;;;4.00;2.47;;;18.20;99.90;;;;;;5032272;28;20979;-66
2023/07/13 02:49:47;;;;;;;2.70;1.80;;;18.10;99.90;;;;;;5032811;28;20444;-65
2023/07/13 02:52:14;;;;;;;3.57;1.60;;;18.10;99.90;;;;;;5031862;28;20464;-66
2023/07/13 02:54:41;;;;;;;3.60;1.53;;;18.00;99.90;;;;;;5031614;28;20471;-66
2023/07/13 02:57:08;;;;;;;1.83;1.23;;;18.10;99.90;;;;;;5032046;28;20455;-65
2023/07/13 02:59:36;;;;;;;3.13;1.93;;;18.10;99.90;;;;;;5032431;28;20463;-65
2023/07/13 03:02:04;;;;;;;3.37;1.83;;;18.00;99.90;;;;;;5032402;28;20496;-65
2023/07/13 03:04:32;;;;;;;2.63;1.67;;;18.00;99.90;;;;;;5032416;28;20476;-65
2023/07/13 03:06:59;;;;;;;2.63;1.87;;;18.00;99.90;;;;;;5032240;28;20483;-65
2023/07/13 03:09:26;;;;;;;3.70;1.80;;;18.00;99.90;;;;;;5031334;28;20896;-65
2023/07/13 03:11:55;;;;;;;3.40;1.87;;;17.90;99.90;;;;;;5035743;28;20448;-65
2023/07/13 03:14:22;;;;;;;6.20;1.90;;;17.90;99.90;;;;;;5032326;28;20983;-65
2023/07/13 03:16:50;;;;;;;3.60;2.27;;;17.80;99.90;;;;;;5031674;28;20554;-65
2023/07/13 03:19:17;;;;;;;3.67;1.83;;;17.80;99.90;;;;;;5031478;28;21255;-65
2023/07/13 03:21:45;;;;;;;2.60;1.70;;;17.80;99.90;;;;;;5032718;28;20950;-65
2023/07/13 03:24:12;;;;;;;2.03;1.60;;;17.80;99.90;;;;;;5035011;28;20481;-65
2023/07/13 03:26:39;;;;;;;2.70;1.60;;;17.80;99.90;;;;;;5031246;28;20944;-65
2023/07/13 03:29:06;;;;;;;3.33;1.80;;;17.80;99.90;;;;;;5031366;28;20475;-65
2023/07/13 03:31:36;;;;;;;5.47;1.70;;;17.80;99.90;;;;;;5031317;28;20467;-65
2023/07/13 03:34:03;;;;;;;2.00;1.60;;;17.80;99.90;;;;;;5037026;28;20478;-65
2023/07/13 03:36:32;;;;;;;3.70;1.77;;;17.80;99.90;;;;;;5031945;28;20895;-65
2023/07/13 03:39:03;;;;;;;2.40;1.57;;;17.90;99.90;;;;;;5031462;28;20462;-65
2023/07/13 03:41:31;;;;;;;2.53;1.83;;;17.90;99.90;;;;;;5033955;28;20542;-65
2023/07/13 03:43:58;;;;;;;3.30;1.83;;;18.30;99.90;;;;;;5030539;28;21045;-65
2023/07/13 03:46:26;;;;;;;2.90;2.13;;;18.00;99.90;;;;;;5031392;28;20523;-65
2023/07/13 03:48:53;;;;;;;3.60;1.60;;;18.00;99.90;;;;;;5032243;28;20452;-66
2023/07/13 03:51:21;;;;;;;2.10;1.77;;;18.10;99.90;;;;;;5029336;28;20558;-65
2023/07/13 03:53:50;;;;;;;1.50;1.40;;;18.10;99.90;;;;;;5033016;28;20498;-67
2023/07/13 03:56:19;;;;;;;2.00;1.40;;;18.10;99.90;;;;;;5032235;28;20964;-66
2023/07/13 03:58:48;;;;;;;2.00;1.70;;;18.10;99.90;;;;;;5044417;28;20499;-67
2023/07/13 04:01:17;;;;;;;2.80;1.80;;;18.10;99.90;;;;;;5028762;28;20488;-66
2023/07/13 04:03:46;;;;;;;2.60;1.80;;;18.10;99.90;;;;;;5035627;28;20448;-66
2023/07/13 04:06:20;;;;;;;2.70;1.50;;;18.20;99.90;;;;;;5031162;28;20460;-66
2023/07/13 04:08:50;;;;;;;2.10;1.83;;;18.20;99.90;;;;;;5031800;28;20452;-67
2023/07/13 04:11:20;;;;;;;2.70;1.50;;;18.20;99.90;;;;;;5030975;28;20824;-67
2023/07/13 04:13:48;;;;;;;2.07;1.50;;;18.40;99.90;;;;;;5031394;28;20574;-66
2023/07/13 04:16:16;;;;;;;3.33;2.07;;;18.20;99.90;;;;;;5025060;28;20476;-66
2023/07/13 04:18:43;;;;;;;4.10;1.60;;;18.20;99.90;;;;;;5033315;28;20860;-66
2023/07/13 04:21:11;;;;;;;5.00;1.70;;;18.20;99.90;;;;;;5031107;28;20507;-65
2023/07/13 04:23:39;;;;;;;2.93;1.77;;;18.20;99.90;;;;;;5048732;28;20461;-65
2023/07/13 04:26:07;;;;;;;2.37;1.70;;;18.20;99.90;;;;;;5040158;28;20539;-65
2023/07/13 04:28:35;;;;;;;3.00;1.50;;;18.30;99.90;;;;;;5030211;28;20932;-66
2023/07/13 04:31:03;;;;;;;2.20;1.57;;;18.30;99.90;;;;;;5030102;28;20460;-65
2023/07/13 04:33:30;;;;;;;2.43;1.73;;;18.30;99.90;;;;;;5032875;28;20459;-64
2023/07/13 04:35:59;;;;;;;3.30;1.60;;;18.30;99.90;;;;;;5029870;28;20483;-65
2023/07/13 04:38:29;;;;;;;3.20;1.67;;;18.30;99.90;;;;;;5025844;28;20488;-67
2023/07/13 04:40:58;;;;;;;3.73;1.70;;;18.30;99.90;;;;;;5029773;28;20876;-67
2023/07/13 04:43:26;;;;;;;2.40;1.50;;;18.30;99.90;;;;;;5025808;28;20467;-66
2023/07/13 04:45:55;;;;;;;1.60;1.40;;;18.30;99.90;;;;;;5027713;28;20456;-68
2023/07/13 04:48:23;;;;;;;1.90;1.80;;;18.20;99.90;;;;;;5031905;28;21096;-66
2023/07/13 04:50:56;;;;;;;1.93;1.53;;;18.20;99.90;;;;;;5030362;28;20478;-67
2023/07/13 04:53:23;;;;;;;4.20;1.90;;;18.20;99.90;;;;;;5028587;28;20957;-66
2023/07/13 04:55:51;;;;;;;2.67;1.80;;;18.40;99.90;;;;;;5034686;28;20488;-66
2023/07/13 04:58:18;;;;;;;4.50;1.93;;;18.20;99.90;;;;;;5033436;28;20534;-67
2023/07/13 05:00:46;;;;;;;2.77;2.10;;;18.10;99.90;;;;;;5031309;28;20458;-66
2023/07/13 05:03:14;;;;;;;2.10;1.80;;;18.10;99.90;;;;;;5028964;28;20491;-67
2023/07/13 05:05:41;;;;;;;3.37;2.17;;;18.10;99.90;;;;;;5028769;28;21077;-67
2023/07/13 05:08:08;;;;;;;2.73;1.57;;;18.10;99.90;;;;;;5032265;28;20539;-67
2023/07/13 05:10:36;;;;;;;3.00;2.03;;;18.20;99.90;;;;;;5033147;28;20452;-67
2023/07/13 05:13:03;;;;;;;3.33;2.23;;;18.40;99.90;;;;;;5031275;28;20557;-64
2023/07/13 05:15:31;;;;;;;2.50;1.70;;;18.20;99.90;;;;;;5033792;28;20483;-69
2023/07/13 05:17:59;;;;;;;3.33;1.77;;;18.30;99.90;;;;;;5032052;28;20531;-68
2023/07/13 05:20:27;;;;;;;1.83;1.53;;;18.40;99.90;;;;;;5035717;28;20459;-67
2023/07/13 05:22:55;;;;;;;3.53;1.40;;;18.40;99.90;;;;;;5031131;28;20472;-67
2023/07/13 05:25:22;;;;;;;2.10;1.70;;;18.40;99.90;;;;;;5031175;28;20487;-66
2023/07/13 05:27:49;;;;;;;5.20;2.00;;;18.40;99.90;;;;;;5033608;28;20455;-66
2023/07/13 05:30:16;;;;;;;2.97;1.93;;;18.40;99.90;;;;;;5035010;28;20563;-66
2023/07/13 05:32:43;;;;;;;4.07;1.80;;;18.40;99.90;;;;;;5034398;28;20489;-66
2023/07/13 05:35:10;;;;;;;2.13;1.80;;;18.30;99.90;;;;;;5035149;28;20571;-65
2023/07/13 05:37:39;;;;;;;3.33;1.97;;;18.50;99.90;;;;;;5034830;28;20444;-66
2023/07/13 05:40:08;;;;;;;3.13;2.17;;;18.40;99.90;;;;;;5035270;28;20487;-66
2023/07/13 05:42:35;;;;;;;4.90;1.87;;;18.50;99.90;;;;;;5028854;28;20495;-66
2023/07/13 05:45:03;;;;;;;3.93;2.13;;;18.50;99.90;;;;;;5034767;28;20844;-66
2023/07/13 05:47:30;;;;;;;2.57;2.07;;;18.50;99.90;;;;;;5030816;28;20971;-66
2023/07/13 05:49:57;;;;;;;2.33;2.13;;;18.50;99.90;;;;;;5034948;28;20508;-66
2023/07/13 05:52:24;;;;;;;3.27;2.13;;;18.60;99.90;;;;;;5032859;28;20542;-66
2023/07/13 05:54:52;;;;;;;4.03;2.00;;;18.60;99.90;;;;;;5034283;28;20484;-67
2023/07/13 05:57:19;;;;;;;3.53;2.30;;;18.70;99.90;;;;;;5031454;28;20460;-67
2023/07/13 05:59:46;;;;;;;2.37;1.73;;;18.70;99.90;;;;;;5033526;28;20963;-67
2023/07/13 06:02:15;;;;;;;2.10;1.70;;;18.70;99.90;;;;;;5033608;28;20488;-67
2023/07/13 06:04:42;;;;;;;4.07;2.90;;;18.70;99.90;;;;;;5034053;28;20472;-66
2023/07/13 06:07:09;;;;;;;3.03;2.73;;;18.70;99.90;;;;;;5032522;28;20444;-67
2023/07/13 06:09:36;;;;;;;4.77;2.33;;;18.90;99.90;;;;;;5033658;28;20971;-66
2023/07/13 06:12:06;;;;;;;4.97;2.07;;;18.90;99.90;;;;;;5031148;28;20542;-66
2023/07/13 06:14:33;;;;;;;2.60;1.80;;;18.90;99.90;;;;;;5033609;28;20468;-66
2023/07/13 06:17:00;;;;;;;3.97;1.97;;;18.90;99.90;;;;;;5032652;28;22375;-66
2023/07/13 06:19:27;;;;;;;4.37;2.03;;;19.00;99.90;;;;;;5026004;28;20475;-66
2023/07/13 06:21:54;;;;;;;3.03;1.93;;;19.10;99.90;;;;;;5030603;28;20483;-66
2023/07/13 06:24:21;;;;;;;3.47;2.27;;;19.50;99.90;;;;;;5027822;28;20515;-67
2023/07/13 06:26:48;;;;;;;3.23;2.00;;;19.20;99.90;;;;;;5033935;28;20460;-65
2023/07/13 06:29:16;;;;;;;3.40;2.10;;;19.20;99.90;;;;;;5032440;28;20483;-66
2023/07/13 06:31:44;;;;;;;1.77;1.67;;;19.20;99.90;;;;;;5033582;28;20460;-65
2023/07/13 06:34:11;;;;;;;2.57;2.00;;;19.40;99.90;;;;;;5033946;28;21080;-66
2023/07/13 06:36:38;;;;;;;2.97;2.00;;;19.40;99.90;;;;;;5031750;28;20490;-66
2023/07/13 06:39:07;;;;;;;2.80;2.00;;;19.40;99.90;;;;;;5032520;28;21002;-66
2023/07/13 06:41:35;;;;;;;1.87;1.77;;;19.40;99.90;;;;;;5031190;28;20651;-66
2023/07/13 06:44:03;;;;;;;2.50;2.27;;;19.40;99.90;;;;;;5033451;28;20502;-65
2023/07/13 06:46:31;;;;;;;2.93;1.83;;;19.50;99.90;;;;;;5034012;28;20531;-66
2023/07/13 06:48:58;;;;;;;2.37;2.10;;;19.50;99.90;;;;;;5031567;28;20487;-66
2023/07/13 06:51:25;;;;;;;3.37;2.00;;;19.70;99.90;;;;;;5027198;28;20882;-65
2023/07/13 06:53:54;;;;;;;5.53;2.10;;;19.90;99.90;;;;;;5033340;28;20483;-66
2023/07/13 06:56:21;;;;;;;1.70;1.60;;;19.90;99.90;;;;;;5034179;28;20452;-65
2023/07/13 06:58:48;;;;;;;5.00;2.30;;;20.00;99.90;;;;;;5034275;28;20448;-65
2023/07/13 07:01:15;;;;;;;1.83;1.70;;;20.10;99.90;;;;;;5034318;28;20950;-65
2023/07/13 07:03:44;;;;;;;2.67;1.87;;;20.20;99.90;;;;;;5031395;28;20529;-65
2023/07/13 07:06:17;;;;;;;2.50;1.60;;;20.40;99.90;;;;;;5033449;28;20465;-66
2023/07/13 07:08:44;;;;;;;2.53;2.00;;;20.60;99.90;;;;;;5031125;28;20529;-77
2023/07/13 07:11:14;;;;;;;2.67;2.13;;;20.70;99.90;;;;;;5031566;28;20455;-66
2023/07/13 07:13:41;;;;;;;2.63;2.10;;;20.80;99.90;;;;;;5033309;28;20561;-66
2023/07/13 07:16:09;;;;;;;4.10;1.73;;;20.90;99.90;;;;;;5033894;28;20468;-66
2023/07/13 07:18:36;;;;;;;2.90;1.60;;;21.00;99.90;;;;;;5035049;28;21139;-67
2023/07/13 07:21:04;;;;;;;3.20;1.63;;;21.20;99.90;;;;;;5033557;28;20960;-66
2023/07/13 07:23:32;;;;;;;2.30;1.80;;;21.30;99.90;;;;;;5030310;28;20539;-66
2023/07/13 07:25:59;;;;;;;3.87;1.70;;;21.20;99.90;;;;;;5028991;28;20462;-66
2023/07/13 07:28:28;;;;;;;2.37;1.50;;;21.10;99.90;;;;;;5036226;28;20472;-67
2023/07/13 07:30:57;;;;;;;4.00;1.60;;;21.30;99.90;;;;;;5036868;28;20455;-66
2023/07/13 07:33:25;;;;;;;2.23;1.70;;;21.20;99.90;;;;;;5036486;28;20573;-67
2023/07/13 07:35:52;;;;;;;2.40;1.47;;;21.00;99.90;;;;;;5033506;28;20812;-66
2023/07/13 07:38:21;;;;;;;3.00;1.90;;;21.00;99.90;;;;;;5031763;28;20452;-66
2023/07/13 07:40:48;;;;;;;4.10;1.70;;;21.40;99.90;;;;;;5033615;28;20466;-66
2023/07/13 07:43:15;;;;;;;3.00;2.00;;;21.80;99.90;;;;;;5032405;28;20498;-66
2023/07/13 07:45:42;;;;;;;2.00;1.70;;;22.30;99.90;;;;;;5030841;28;20653;-66
2023/07/13 07:48:09;;;;;;;4.23;1.47;;;22.60;99.90;;;;;;5032101;28;20459;-66
2023/07/13 07:50:38;;;;;;;2.17;1.50;;;22.80;99.90;;;;;;5033401;28;20464;-68
2023/07/13 07:53:07;;;;;;;4.30;1.57;;;22.90;99.20;;;;;;5033052;28;20522;-66
2023/07/13 07:55:35;;;;;;;1.30;1.20;;;23.00;98.20;;;;;;5026563;28;20564;-66
2023/07/13 07:58:02;;;;;;;3.17;1.60;;;22.90;97.10;;;;;;5031132;28;20444;-66
2023/07/13 08:00:31;;;;;;;1.50;1.10;;;22.90;98.20;;;;;;5031664;28;20462;-67
2023/07/13 08:02:58;;;;;;;2.53;1.60;;;22.90;98.30;;;;;;5031530;28;21015;-66
2023/07/13 08:05:25;;;;;;;2.30;1.50;;;22.90;98.50;;;;;;5028801;28;20480;-66
2023/07/13 08:07:53;;;;;;;4.37;1.47;;;23.10;96.50;;;;;;4996183;28;53452;-66
2023/07/13 08:10:20;;;;;;;1.63;1.30;;;23.20;96.60;;;;;;5029569;28;20944;-66
2023/07/13 08:12:48;;;;;;;1.77;1.30;;;23.30;95.40;;;;;;5028921;28;20452;-66
2023/07/13 08:15:20;;;;;;;1.93;1.20;;;23.50;95.20;;;;;;5027850;28;20903;-66
2023/07/13 08:17:48;;;;;;;3.13;1.40;;;23.50;94.80;;;;;;5033376;28;20452;-66
2023/07/13 08:20:16;;;;;;;1.87;1.20;;;23.50;94.00;;;;;;5033461;28;20541;-66
2023/07/13 08:22:43;;;;;;;6.77;1.53;;;23.60;94.80;;;;;;5035145;28;21232;-73
2023/07/13 08:34:47;;;;;;;4.37;2.20;;;;;;;24.08;36.12;98039.66;4921287;27;20574;-72
2023/07/13 08:37:14;;;;;;;3.00;1.50;;;;;;;23.99;35.85;98051.66;5034117;28;20477;-75
2023/07/13 08:39:41;;;;;;;2.45;1.40;;;;;;;24.68;34.74;98037.47;5027833;28;20536;-83
2023/07/13 08:42:14;;;;;;;2.43;1.40;;;;;;;24.78;34.55;98037.34;5032923;28;20673;-80
2023/07/13 08:44:47;;;;;;;6.20;1.67;;;;;;;24.47;35.06;98041.56;4965025;28;20483;-78
2023/07/13 08:50:16;;;;;;;2.43;1.60;;;;;;;25.85;31.48;98049.81;4994935;27;20599;-76
2023/07/13 08:52:46;;;;;;;4.17;1.70;;;;;;;25.55;30.53;98053.03;5003324;28;20486;-77
2023/07/13 08:55:16;;;;;;;2.43;1.60;;;;;;;24.74;32.41;98041.81;4999420;28;20457;-76
2023/07/13 08:57:46;;;;;;;3.83;1.80;;;;;;;24.80;33.43;98050.88;4996962;28;20552;-76
2023/07/13 09:00:14;;;;;;;2.07;1.57;;;;;;;24.67;33.16;98044.13;5000437;28;20453;-77
2023/07/13 09:02:46;;;;;;;3.47;2.00;;;;;;;25.00;34.48;98055.41;5002474;28;20463;-76
2023/07/13 09:05:17;;;;;;;3.40;2.50;;;;;;;25.42;33.48;98057.34;4999418;28;20459;-76
2023/07/13 09:08:06;;;;;;;3.87;2.47;;;;;;;25.42;32.32;98058.16;5000789;28;20502;-72
2023/07/13 09:10:37;;;;;;;3.50;1.70;;;;;;;25.45;32.26;98057.56;5000171;28;20460;-76
2023/07/13 09:13:17;;;;;;;4.13;2.07;;;;;;;25.38;32.72;98054.34;5000878;28;21017;-76
2023/07/13 09:15:45;;;;;;;3.73;3.03;;;;;;;25.48;32.88;98049.78;5001888;28;20456;-76
2023/07/13 09:18:17;;;;;;;3.43;1.90;;;;;;;25.85;32.87;98060.91;4999646;28;20577;-76
2023/07/13 09:20:48;;;;;;;1.73;1.43;;;;;;;25.51;32.70;98054.75;5003475;28;20543;-76
2023/07/13 09:23:18;;;;;;;4.57;1.80;;;;;;;25.56;32.08;98057.44;5004189;28;20457;-76
2023/07/13 09:25:46;;;;;;;2.70;1.50;;;;;;;25.67;32.31;98053.41;4996995;28;20579;-76
2023/07/13 09:28:16;;;;;;;2.87;1.60;;;;;;;26.16;32.64;98060.44;5001267;28;21323;-76
2023/07/13 09:30:51;;;;;;;2.53;1.47;;;;;;;26.10;32.26;98052.19;5003898;28;20485;-75
2023/07/13 09:33:18;;;;;;;2.50;1.73;;;;;;;26.34;31.01;98056.81;5001040;28;20530;-75
2023/07/13 09:35:47;;;;;;;2.27;1.50;;;;;;;26.50;28.61;98058.19;5000321;28;20459;-77
2023/07/13 09:38:16;;;;;;;3.10;1.70;;;;;;;26.41;29.60;98060.84;4998339;28;20544;-76
2023/07/13 09:41:01;;;;;;;3.63;1.60;;;;;;;26.33;30.06;98049.59;5001194;28;21172;-76
2023/07/13 09:43:28;;;;;;;4.13;1.57;;;;;;;26.08;29.52;98053.59;5004307;28;20480;-76
2023/07/13 09:45:56;;;;;;;2.17;1.70;;;;;;;26.19;29.85;98051.50;5006476;28;20460;-75
2023/07/13 09:48:24;;;;;;;3.30;1.77;;;;;;;26.29;29.82;98051.34;4999077;28;20500;-76
2023/07/13 09:50:55;;;;;;;2.57;1.50;;;;;;;26.34;29.04;98057.63;4999204;28;20461;-75
2023/07/13 09:53:23;;;;;;;4.23;1.57;;;;;;;26.22;29.33;98045.34;5001576;28;21664;-76
2023/07/13 09:55:51;;;;;;;3.17;1.80;;;;;;;26.52;29.73;98050.38;5008938;28;20465;-77
2023/07/13 09:58:19;;;;;;;2.13;1.43;;;;;;;26.18;29.25;98044.31;5003665;28;20969;-77
2023/07/13 10:00:55;;;;;;;2.33;1.67;;;;;;;26.47;29.64;98046.88;4991675;28;20540;-76
2023/07/13 10:03:25;;;;;;;2.90;1.90;;;;;;;26.61;29.33;98056.06;4992006;28;20497;-76
2023/07/13 10:05:54;;;;;;;2.50;1.60;;;;;;;26.91;27.88;98051.88;4991054;28;21352;-76
2023/07/13 10:08:27;;;;;;;1.57;1.40;;;;;;;26.23;29.01;98050.59;4994360;28;20461;-76
2023/07/13 10:10:59;;;;;;;2.67;1.33;;;;;;;26.85;29.29;98044.78;4988320;28;20462;-74
2023/07/13 10:13:37;;;;;;;1.70;1.57;;;;;;;27.29;28.03;98044.97;5000532;28;20484;-77
2023/07/13 10:16:06;;;;;;;4.30;1.83;;;;;;;27.39;28.19;98049.50;4994253;28;20457;-76
2023/07/13 10:18:41;;;;;;;1.97;1.53;;;;;;;27.79;27.43;98046.97;4994398;28;20962;-76
2023/07/13 10:21:16;;;;;;;2.13;1.20;;;;;;;27.14;28.72;98050.06;4988808;28;20560;-76
2023/07/13 10:23:43;;;;;;;6.00;1.47;;;;;;;27.37;28.23;98057.31;4987914;28;20877;-76
2023/07/13 10:26:16;;;;;;;2.10;1.30;;;;;;;27.65;28.48;98041.44;4992290;28;20511;-76
2023/07/13 10:28:45;;;;;;;2.83;1.43;;;;;;;27.72;27.49;98041.84;4987850;28;20551;-77
2023/07/13 10:31:15;;;;;;;1.83;1.30;;;;;;;28.10;27.11;98042.31;4984860;28;21304;-77
2023/07/13 10:33:42;;;;;;;1.60;1.30;;;;;;;28.05;27.56;98046.03;4984179;28;20496;-77
2023/07/13 10:36:17;;;;;;;2.57;1.20;;;;;;;27.95;28.18;98042.66;4991702;28;20446;-77
2023/07/13 10:38:44;;;;;;;3.03;1.80;;;;;;;27.32;28.12;98035.19;4989862;28;20533;-76
2023/07/13 10:41:13;;;;;;;3.70;1.60;;;;;;;27.15;28.86;98049.75;4982747;28;20817;-76
2023/07/13 10:43:43;;;;;;;1.63;1.53;;;;;;;27.43;28.77;98056.09;4986163;28;20997;-77
2023/07/13 10:46:12;;;;;;;2.27;1.80;;;;;;;27.23;29.09;98056.53;4977519;28;20986;-77
2023/07/13 10:48:40;;;;;;;2.93;1.67;;;;;;;26.74;28.68;98050.50;4987721;28;20498;-77
2023/07/13 10:51:07;;;;;;;2.70;1.57;;;;;;;27.16;29.03;98043.06;4997987;28;20544;-77
2023/07/13 10:53:39;;;;;;;4.10;1.70;;;;;;;26.95;28.93;98033.47;5001770;28;20571;-76
2023/07/13 10:56:13;;;;;;;3.40;1.87;;;;;;;27.20;29.03;98040.47;4973672;28;20471;-77
2023/07/13 10:58:41;;;;;;;2.30;1.63;;;;;;;26.74;29.12;98035.81;5014080;28;20456;-77
2023/07/13 11:01:10;;;;;;;2.30;1.60;;;;;;;26.95;28.61;98039.03;5015199;28;20567;-77
2023/07/13 11:03:39;;;;;;;3.93;1.60;;;;;;;26.90;28.88;98031.59;5010824;28;20806;-77
2023/07/13 11:06:10;;;;;;;2.30;1.53;;;;;;;28.20;27.30;98030.09;4914694;28;88662;-77
2023/07/13 11:08:52;;;;;;;2.03;1.60;;;;;;;28.73;25.98;98030.94;4978878;28;20522;-77
2023/07/13 11:11:40;;;;;;;3.20;1.60;;;;;;;28.21;26.29;98015.91;4960379;28;20772;-77
2023/07/13 11:14:28;;;;;;;3.10;1.60;;;;;;;27.33;27.49;98011.81;4970573;28;21007;-77
2023/07/13 11:16:55;;;;;;;1.70;1.50;;;;;;;27.60;27.13;98020.16;4965229;28;20462;-76
2023/07/13 11:19:39;;;;;;;3.03;1.70;;;;;;;28.96;25.21;98022.53;4975624;28;20460;-76
2023/07/13 11:22:16;;;;;;;2.30;1.60;;;;;;;29.66;24.78;98018.75;4968957;28;20533;-76
2023/07/13 11:24:59;;;;;;;1.37;1.17;;;;;;;29.50;24.60;98014.81;4966717;28;20466;-76
2023/07/13 11:27:44;;;;;;;2.23;1.50;;;;;;;29.07;24.49;98009.94;4971039;28;20943;-76
2023/07/13 11:30:24;;;;;;;5.70;1.50;;;;;;;30.34;23.45;98003.16;4969246;28;21246;-76
2023/07/13 11:32:53;;;;;;;2.40;1.33;;;;;;;30.90;22.58;98021.56;4970489;28;20478;-76
2023/07/13 11:35:24;;;;;;;3.27;1.60;;;;;;;31.19;22.45;98000.41;4970512;28;20474;-76
2023/07/13 11:37:52;;;;;;;1.97;1.70;;;;;;;31.12;22.64;98005.69;4969177;28;20939;-76
2023/07/13 11:40:23;;;;;;;2.27;1.70;;;;;;;31.17;22.73;98009.13;4981036;28;20557;-77
2023/07/13 11:42:50;;;;;;;2.57;2.00;;;;;;;29.83;24.06;98009.59;4976027;28;20481;-77
2023/07/13 11:45:22;;;;;;;3.33;2.00;;;;;;;29.08;24.93;98008.78;4973858;28;20465;-77
2023/07/13 11:47:49;;;;;;;2.20;1.60;;;;;;;28.61;25.82;98002.84;4970504;28;20554;-77
2023/07/13 11:50:21;;;;;;;3.53;1.70;;;;;;;28.35;26.10;98004.66;4970523;28;20879;-77
2023/07/13 11:52:49;;;;;;;2.53;1.50;;;;;;;27.58;26.72;98014.09;4967280;28;20485;-77
2023/07/13 11:55:18;;;;;;;3.87;1.50;;;;;;;27.47;27.16;98015.41;4973544;28;21017;-76
2023/07/13 11:57:51;;;;;;;1.87;1.40;;;;;;;26.85;27.58;98012.25;4971662;28;20803;-75
2023/07/13 12:00:22;;;;;;;4.00;1.83;;;;;;;28.21;26.42;98009.50;4965282;28;20522;-76
2023/07/13 12:02:56;;;;;;;3.53;1.90;;;;;;;29.28;24.12;98005.38;4970860;28;20470;-78
2023/07/13 12:05:24;;;;;;;4.37;1.57;;;;;;;28.80;25.44;98016.53;4981073;28;20555;-77
2023/07/13 12:07:51;;;;;;;2.00;1.70;;;;;;;28.19;25.70;98022.91;4985695;28;20445;-78
2023/07/13 12:10:21;;;;;;;4.70;1.63;;;;;;;27.99;25.59;98019.47;4983944;28;20482;-78
2023/07/13 12:12:53;;;;;;;2.93;1.63;;;;;;;27.48;26.68;98013.44;4988356;28;20557;-77
2023/07/13 12:15:21;;;;;;;4.03;1.60;;;;;;;28.67;25.08;98012.69;4987250;28;20465;-76
2023/07/13 12:17:49;;;;;;;2.37;1.63;;;;;;;30.24;24.09;98012.69;4992505;28;20458;-77
2023/07/13 12:20:21;;;;;;;3.23;1.50;;;;;;;31.25;22.21;98005.44;4990117;28;20481;-80
2023/07/13 12:22:49;;;;;;;3.87;1.80;;;;;;;32.49;21.06;98009.38;4993936;28;21059;-77
2023/07/13 12:25:17;;;;;;;3.00;1.60;;;;;;;30.98;21.14;98005.91;4988193;28;20984;-78
2023/07/13 12:27:47;;;;;;;2.43;1.80;;;;;;;31.38;21.76;97998.78;4986243;28;20953;-75
2023/07/13 12:30:33;;;;;;;1.87;1.63;;;;;;;32.48;20.13;98010.59;5001518;28;20517;-78
2023/07/13 12:33:02;;;;;;;2.27;1.50;;;;;;;32.79;19.97;98017.69;4985320;28;20842;-78
2023/07/13 12:35:33;;;;;;;4.10;1.90;;;;;;;32.38;19.91;98009.03;4990754;28;20473;-81
2023/07/13 12:38:00;;;;;;;3.77;2.00;;;;;;;29.86;22.88;97998.59;4986825;28;20446;-77
2023/07/13 12:40:32;;;;;;;3.33;1.70;;;;;;;29.29;22.85;98006.22;4985793;28;20465;-76
2023/07/13 12:42:59;;;;;;;1.73;1.40;;;;;;;28.48;24.79;98003.78;4986012;28;20998;-75